QAK167 MUHA-MKJP
Flight info
| Callsign | QAK167 |
|---|---|
| Flight time | 1h 24m |
| Altitude | 23000 |
| Route | UCL G442 SIA R640 KEMBO ELSER6 |
| Aircraft | B738/M-SDE2E3FGHIRWXY/LB1 |
Departure
| Time | 2026-05-08 18:02 |
|---|---|
| Airport | José Martí International Airport (MUHA) |
Arrival
| Time | 2026-05-08 19:27 |
|---|---|
| Airport | Norman Manley International Airport (MKJP) |
| Time | Latitude | Longitude | Altitude | Speed | Heading |
|---|---|---|---|---|---|
| 2026-05-08 17:41 | 22.99976 | -82.39927 | 216 ft | 0 kts | 323° |
| 2026-05-08 17:56 | 22.99974 | -82.39925 | 216 ft | 4 kts | 323° |
| 2026-05-08 17:56 | 22.99953 | -82.39908 | 216 ft | 2 kts | 324° |
| 2026-05-08 17:57 | 22.99940 | -82.39899 | 216 ft | 1 kts | 339° |
| 2026-05-08 17:57 | 22.99927 | -82.39896 | 216 ft | 1 kts | 2° |
| 2026-05-08 17:57 | 22.99915 | -82.39899 | 216 ft | 1 kts | 25° |
| 2026-05-08 17:57 | 22.99904 | -82.39906 | 216 ft | 1 kts | 47° |
| 2026-05-08 17:58 | 22.99902 | -82.39909 | 216 ft | 0 kts | 50° |
| 2026-05-08 17:58 | 22.99912 | -82.39896 | 216 ft | 5 kts | 50° |
| 2026-05-08 17:58 | 22.99946 | -82.39845 | 216 ft | 11 kts | 61° |
| 2026-05-08 17:58 | 22.99995 | -82.39759 | 216 ft | 15 kts | 51° |
| 2026-05-08 17:59 | 22.99984 | -82.39662 | 216 ft | 16 kts | 129° |
| 2026-05-08 17:59 | 23.00020 | -82.39560 | 216 ft | 16 kts | 52° |
| 2026-05-08 17:59 | 23.00075 | -82.39451 | 216 ft | 16 kts | 88° |
| 2026-05-08 17:59 | 23.00002 | -82.39361 | 216 ft | 16 kts | 145° |
| 2026-05-08 18:00 | 22.99927 | -82.39384 | 216 ft | 11 kts | 237° |
| 2026-05-08 18:00 | 22.99914 | -82.39404 | 216 ft | 0 kts | 233° |
| 2026-05-08 18:01 | 22.99913 | -82.39404 | 216 ft | 1 kts | 233° |
| 2026-05-08 18:01 | 22.99846 | -82.39501 | 216 ft | 38 kts | 232° |
| 2026-05-08 18:01 | 22.99562 | -82.39934 | 216 ft | 99 kts | 235° |
| 2026-05-08 18:02 | 22.99037 | -82.40726 | 217 ft | 165 kts | 234° |
| 2026-05-08 18:02 | 22.98270 | -82.41865 | 645 ft | 198 kts | 234° |
| 2026-05-08 18:02 | 22.97427 | -82.43089 | 1356 ft | 213 kts | 233° |
| 2026-05-08 18:02 | 22.96434 | -82.44341 | 1440 ft | 244 kts | 221° |
| 2026-05-08 18:03 | 22.94903 | -82.45203 | 1513 ft | 248 kts | 197° |
| 2026-05-08 18:03 | 22.93193 | -82.45351 | 1490 ft | 248 kts | 174° |
| 2026-05-08 18:03 | 22.91566 | -82.44754 | 1490 ft | 250 kts | 151° |
| 2026-05-08 18:03 | 22.90282 | -82.43507 | 1573 ft | 248 kts | 126° |
| 2026-05-08 18:04 | 22.89488 | -82.41858 | 2007 ft | 251 kts | 119° |
| 2026-05-08 18:04 | 22.88347 | -82.40448 | 2371 ft | 253 kts | 138° |
| 2026-05-08 18:04 | 22.86981 | -82.39226 | 2694 ft | 259 kts | 142° |
| 2026-05-08 18:04 | 22.85567 | -82.38031 | 2807 ft | 259 kts | 142° |
| 2026-05-08 18:05 | 22.84140 | -82.36833 | 3082 ft | 255 kts | 142° |
| 2026-05-08 18:05 | 22.82728 | -82.35649 | 3432 ft | 257 kts | 142° |
| 2026-05-08 18:05 | 22.81322 | -82.34469 | 3801 ft | 259 kts | 142° |
| 2026-05-08 18:05 | 22.79896 | -82.33273 | 4177 ft | 260 kts | 142° |
| 2026-05-08 18:06 | 22.78466 | -82.32074 | 4552 ft | 262 kts | 142° |
| 2026-05-08 18:06 | 22.77011 | -82.30854 | 4931 ft | 263 kts | 142° |
| 2026-05-08 18:06 | 22.75571 | -82.29647 | 5304 ft | 265 kts | 142° |
| 2026-05-08 18:06 | 22.74112 | -82.28425 | 5680 ft | 266 kts | 142° |
| 2026-05-08 18:07 | 22.72640 | -82.27192 | 6057 ft | 268 kts | 142° |
| 2026-05-08 18:07 | 22.71161 | -82.25954 | 6434 ft | 269 kts | 142° |
| 2026-05-08 18:07 | 22.69668 | -82.24704 | 6812 ft | 271 kts | 142° |
| 2026-05-08 18:07 | 22.68189 | -82.23466 | 7185 ft | 272 kts | 142° |
| 2026-05-08 18:08 | 22.66636 | -82.22264 | 7556 ft | 274 kts | 149° |
| 2026-05-08 18:08 | 22.65009 | -82.21195 | 7941 ft | 275 kts | 149° |
| 2026-05-08 18:08 | 22.63361 | -82.20115 | 8317 ft | 277 kts | 149° |
| 2026-05-08 18:08 | 22.61708 | -82.19031 | 8694 ft | 278 kts | 149° |
| 2026-05-08 18:09 | 22.60048 | -82.17944 | 9070 ft | 280 kts | 149° |
| 2026-05-08 18:09 | 22.58385 | -82.16855 | 9445 ft | 282 kts | 149° |
| 2026-05-08 18:09 | 22.56714 | -82.15760 | 9819 ft | 283 kts | 149° |
| 2026-05-08 18:09 | 22.55032 | -82.14659 | 10194 ft | 285 kts | 149° |
| 2026-05-08 18:10 | 22.53342 | -82.13553 | 10569 ft | 286 kts | 149° |
| 2026-05-08 18:10 | 22.51667 | -82.12457 | 10938 ft | 288 kts | 149° |
| 2026-05-08 18:10 | 22.49949 | -82.11333 | 11314 ft | 290 kts | 149° |
| 2026-05-08 18:10 | 22.48214 | -82.10198 | 11692 ft | 291 kts | 149° |
| 2026-05-08 18:11 | 22.46486 | -82.09069 | 12066 ft | 293 kts | 149° |
| 2026-05-08 18:11 | 22.44750 | -82.07934 | 12440 ft | 295 kts | 149° |
| 2026-05-08 18:11 | 22.42982 | -82.06780 | 12818 ft | 296 kts | 149° |
| 2026-05-08 18:11 | 22.41223 | -82.05630 | 13193 ft | 298 kts | 149° |
| 2026-05-08 18:12 | 22.39460 | -82.04479 | 13566 ft | 300 kts | 149° |
| 2026-05-08 18:12 | 22.37671 | -82.03311 | 13942 ft | 302 kts | 149° |
| 2026-05-08 18:12 | 22.35860 | -82.02129 | 14321 ft | 303 kts | 149° |
| 2026-05-08 18:12 | 22.34064 | -82.00957 | 14694 ft | 305 kts | 149° |
| 2026-05-08 18:13 | 22.32258 | -81.99779 | 15068 ft | 307 kts | 149° |
| 2026-05-08 18:13 | 22.30416 | -81.98579 | 15447 ft | 309 kts | 149° |
| 2026-05-08 18:13 | 22.28580 | -81.97382 | 15822 ft | 311 kts | 149° |
| 2026-05-08 18:13 | 22.26757 | -81.96195 | 16193 ft | 315 kts | 149° |
| 2026-05-08 18:14 | 22.24853 | -81.94954 | 16613 ft | 334 kts | 149° |
| 2026-05-08 18:14 | 22.22802 | -81.93619 | 17028 ft | 354 kts | 149° |
| 2026-05-08 18:14 | 22.20648 | -81.92217 | 17510 ft | 368 kts | 149° |
| 2026-05-08 18:14 | 22.18473 | -81.90801 | 17952 ft | 370 kts | 149° |
| 2026-05-08 18:15 | 22.16279 | -81.89374 | 18309 ft | 368 kts | 149° |
| 2026-05-08 18:15 | 22.14091 | -81.87952 | 18680 ft | 366 kts | 149° |
| 2026-05-08 18:15 | 22.11933 | -81.86549 | 19047 ft | 366 kts | 149° |
| 2026-05-08 18:15 | 22.09763 | -81.85139 | 19417 ft | 365 kts | 149° |
| 2026-05-08 18:16 | 22.07577 | -81.83720 | 19790 ft | 365 kts | 149° |
| 2026-05-08 18:16 | 22.05401 | -81.82307 | 20162 ft | 364 kts | 149° |
| 2026-05-08 18:16 | 22.03238 | -81.80903 | 20532 ft | 364 kts | 149° |
| 2026-05-08 18:16 | 22.01071 | -81.79497 | 20903 ft | 364 kts | 149° |
| 2026-05-08 18:17 | 21.98905 | -81.78092 | 21274 ft | 363 kts | 149° |
| 2026-05-08 18:17 | 21.96755 | -81.76698 | 21643 ft | 363 kts | 149° |
| 2026-05-08 18:17 | 21.94601 | -81.75302 | 22014 ft | 362 kts | 149° |
| 2026-05-08 18:17 | 21.92449 | -81.73908 | 22384 ft | 362 kts | 149° |
| 2026-05-08 18:18 | 21.90299 | -81.72516 | 22755 ft | 361 kts | 149° |
| 2026-05-08 18:18 | 21.88169 | -81.71137 | 22971 ft | 364 kts | 149° |
| 2026-05-08 18:18 | 21.85980 | -81.69720 | 22991 ft | 363 kts | 149° |
| 2026-05-08 18:18 | 21.83831 | -81.68330 | 22993 ft | 361 kts | 149° |
| 2026-05-08 18:19 | 21.81728 | -81.66969 | 22999 ft | 360 kts | 149° |
| 2026-05-08 18:19 | 21.79574 | -81.65577 | 22999 ft | 360 kts | 149° |
| 2026-05-08 18:19 | 21.77441 | -81.64199 | 23000 ft | 360 kts | 149° |
| 2026-05-08 18:19 | 21.75302 | -81.62817 | 23000 ft | 360 kts | 149° |
| 2026-05-08 18:20 | 21.73149 | -81.61427 | 22999 ft | 360 kts | 149° |
| 2026-05-08 18:20 | 21.70988 | -81.60032 | 22999 ft | 360 kts | 149° |
| 2026-05-08 18:20 | 21.68862 | -81.58659 | 23000 ft | 360 kts | 149° |
| 2026-05-08 18:20 | 21.66709 | -81.57271 | 23000 ft | 360 kts | 149° |
| 2026-05-08 18:21 | 21.64551 | -81.55879 | 23000 ft | 360 kts | 149° |
| 2026-05-08 18:21 | 21.62390 | -81.54486 | 23000 ft | 360 kts | 149° |
| 2026-05-08 18:21 | 21.60414 | -81.52894 | 22965 ft | 361 kts | 136° |
| 2026-05-08 18:21 | 21.58664 | -81.50972 | 23010 ft | 361 kts | 133° |
| 2026-05-08 18:22 | 21.56946 | -81.48980 | 23001 ft | 361 kts | 132° |
| 2026-05-08 18:22 | 21.55262 | -81.46989 | 22997 ft | 361 kts | 132° |
| 2026-05-08 18:22 | 21.53586 | -81.44996 | 23000 ft | 360 kts | 132° |
| 2026-05-08 18:22 | 21.51905 | -81.42992 | 23000 ft | 360 kts | 131° |
| 2026-05-08 18:23 | 21.50219 | -81.40980 | 22999 ft | 360 kts | 131° |
| 2026-05-08 18:23 | 21.48539 | -81.38975 | 23000 ft | 360 kts | 131° |
| 2026-05-08 18:23 | 21.46887 | -81.37004 | 23000 ft | 360 kts | 131° |
| 2026-05-08 18:23 | 21.45212 | -81.35008 | 23000 ft | 360 kts | 131° |
| 2026-05-08 18:24 | 21.43537 | -81.33011 | 23000 ft | 360 kts | 132° |
| 2026-05-08 18:24 | 21.41873 | -81.31027 | 23000 ft | 360 kts | 132° |
| 2026-05-08 18:24 | 21.40225 | -81.29064 | 23000 ft | 360 kts | 132° |
| 2026-05-08 18:24 | 21.38549 | -81.27068 | 23000 ft | 360 kts | 132° |
| 2026-05-08 18:25 | 21.36867 | -81.25066 | 23000 ft | 360 kts | 132° |
| 2026-05-08 18:25 | 21.35187 | -81.23067 | 23000 ft | 360 kts | 132° |
| 2026-05-08 18:25 | 21.33527 | -81.21093 | 23000 ft | 360 kts | 132° |
| 2026-05-08 18:25 | 21.31842 | -81.19088 | 23000 ft | 360 kts | 132° |
| 2026-05-08 18:26 | 21.30153 | -81.17082 | 23000 ft | 360 kts | 132° |
| 2026-05-08 18:26 | 21.28553 | -81.15179 | 23000 ft | 360 kts | 132° |
| 2026-05-08 18:26 | 21.26870 | -81.13181 | 23000 ft | 360 kts | 132° |
| 2026-05-08 18:26 | 21.25195 | -81.11193 | 23000 ft | 360 kts | 132° |
| 2026-05-08 18:27 | 21.23530 | -81.09216 | 23000 ft | 360 kts | 132° |
| 2026-05-08 18:27 | 21.22397 | -81.07873 | 23000 ft | 360 kts | 132° |
| 2026-05-08 18:27 | 21.20170 | -81.05231 | 23000 ft | 360 kts | 132° |
| 2026-05-08 18:27 | 21.18477 | -81.03223 | 23000 ft | 360 kts | 132° |
| 2026-05-08 18:28 | 21.16822 | -81.01262 | 23000 ft | 360 kts | 132° |
| 2026-05-08 18:28 | 21.15132 | -80.99260 | 23000 ft | 360 kts | 132° |
| 2026-05-08 18:28 | 21.13462 | -80.97282 | 23000 ft | 360 kts | 132° |
| 2026-05-08 18:28 | 21.11763 | -80.95270 | 23000 ft | 360 kts | 132° |
| 2026-05-08 18:29 | 21.10088 | -80.93288 | 23000 ft | 360 kts | 132° |
| 2026-05-08 18:29 | 21.08412 | -80.91305 | 23000 ft | 360 kts | 132° |
| 2026-05-08 18:29 | 21.06743 | -80.89328 | 22999 ft | 360 kts | 132° |
| 2026-05-08 18:29 | 21.05060 | -80.87319 | 23000 ft | 360 kts | 132° |
| 2026-05-08 18:30 | 21.03398 | -80.85335 | 23000 ft | 360 kts | 132° |
| 2026-05-08 18:30 | 21.01752 | -80.83373 | 23000 ft | 360 kts | 132° |
| 2026-05-08 18:30 | 21.00075 | -80.81372 | 23000 ft | 360 kts | 132° |
| 2026-05-08 18:30 | 20.98408 | -80.79385 | 23000 ft | 360 kts | 132° |
| 2026-05-08 18:31 | 20.96734 | -80.77388 | 23000 ft | 360 kts | 132° |
| 2026-05-08 18:31 | 20.95067 | -80.75402 | 23000 ft | 360 kts | 132° |
| 2026-05-08 18:31 | 20.93395 | -80.73410 | 23025 ft | 372 kts | 132° |
| 2026-05-08 18:31 | 20.91641 | -80.71322 | 23003 ft | 383 kts | 132° |
| 2026-05-08 18:32 | 20.89894 | -80.69243 | 23001 ft | 381 kts | 132° |
| 2026-05-08 18:32 | 20.88093 | -80.67100 | 22996 ft | 379 kts | 132° |
| 2026-05-08 18:32 | 20.86340 | -80.65015 | 22998 ft | 378 kts | 132° |
| 2026-05-08 18:32 | 20.84569 | -80.62909 | 23000 ft | 378 kts | 132° |
| 2026-05-08 18:33 | 20.82816 | -80.60826 | 23000 ft | 378 kts | 132° |
| 2026-05-08 18:33 | 20.81042 | -80.58720 | 23000 ft | 379 kts | 132° |
| 2026-05-08 18:33 | 20.79295 | -80.56644 | 22999 ft | 378 kts | 132° |
| 2026-05-08 18:33 | 20.77531 | -80.54550 | 22999 ft | 378 kts | 132° |
| 2026-05-08 18:34 | 20.75761 | -80.52450 | 23000 ft | 378 kts | 132° |
| 2026-05-08 18:34 | 20.74006 | -80.50367 | 23000 ft | 378 kts | 132° |
| 2026-05-08 18:34 | 20.72251 | -80.48286 | 23000 ft | 378 kts | 132° |
| 2026-05-08 18:34 | 20.70499 | -80.46210 | 23000 ft | 378 kts | 132° |
| 2026-05-08 18:35 | 20.68716 | -80.44097 | 23000 ft | 378 kts | 132° |
| 2026-05-08 18:35 | 20.66965 | -80.42024 | 23000 ft | 378 kts | 132° |
| 2026-05-08 18:35 | 20.65240 | -80.39981 | 23000 ft | 378 kts | 132° |
| 2026-05-08 18:35 | 20.63488 | -80.37908 | 23000 ft | 378 kts | 132° |
| 2026-05-08 18:36 | 20.61769 | -80.35873 | 23000 ft | 378 kts | 132° |
| 2026-05-08 18:36 | 20.60021 | -80.33806 | 23000 ft | 378 kts | 132° |
| 2026-05-08 18:36 | 20.58245 | -80.31706 | 23000 ft | 378 kts | 132° |
| 2026-05-08 18:36 | 20.56485 | -80.29627 | 23000 ft | 378 kts | 132° |
| 2026-05-08 18:37 | 20.54733 | -80.27557 | 23000 ft | 378 kts | 132° |
| 2026-05-08 18:37 | 20.52959 | -80.25461 | 23000 ft | 378 kts | 132° |
| 2026-05-08 18:37 | 20.51182 | -80.23370 | 22999 ft | 378 kts | 132° |
| 2026-05-08 18:37 | 20.49424 | -80.21314 | 23000 ft | 378 kts | 132° |
| 2026-05-08 18:38 | 20.47649 | -80.19238 | 23000 ft | 378 kts | 132° |
| 2026-05-08 18:38 | 20.45869 | -80.17158 | 23000 ft | 378 kts | 132° |
| 2026-05-08 18:38 | 20.44104 | -80.15098 | 23000 ft | 378 kts | 132° |
| 2026-05-08 18:38 | 20.42316 | -80.13010 | 23000 ft | 378 kts | 132° |
| 2026-05-08 18:39 | 20.40527 | -80.10923 | 23000 ft | 378 kts | 132° |
| 2026-05-08 18:39 | 20.38765 | -80.08866 | 23000 ft | 378 kts | 132° |
| 2026-05-08 18:39 | 20.36989 | -80.06795 | 23000 ft | 378 kts | 132° |
| 2026-05-08 18:39 | 20.35204 | -80.04715 | 23000 ft | 378 kts | 132° |
| 2026-05-08 18:40 | 20.33438 | -80.02657 | 23000 ft | 378 kts | 132° |
| 2026-05-08 18:40 | 20.31654 | -80.00579 | 23000 ft | 378 kts | 132° |
| 2026-05-08 18:40 | 20.29893 | -79.98528 | 23000 ft | 378 kts | 132° |
| 2026-05-08 18:40 | 20.28104 | -79.96446 | 23000 ft | 378 kts | 132° |
| 2026-05-08 18:41 | 20.26329 | -79.94381 | 23000 ft | 378 kts | 132° |
| 2026-05-08 18:41 | 20.24548 | -79.92309 | 23000 ft | 378 kts | 132° |
| 2026-05-08 18:41 | 20.22791 | -79.90266 | 23000 ft | 378 kts | 132° |
| 2026-05-08 18:41 | 20.21007 | -79.88193 | 23000 ft | 378 kts | 132° |
| 2026-05-08 18:42 | 20.19230 | -79.86128 | 23000 ft | 378 kts | 132° |
| 2026-05-08 18:42 | 20.17449 | -79.84059 | 23000 ft | 378 kts | 132° |
| 2026-05-08 18:42 | 20.15659 | -79.81981 | 23000 ft | 378 kts | 132° |
| 2026-05-08 18:42 | 20.13888 | -79.79926 | 23000 ft | 378 kts | 132° |
| 2026-05-08 18:43 | 20.12103 | -79.77855 | 23000 ft | 378 kts | 132° |
| 2026-05-08 18:43 | 20.10328 | -79.75796 | 23000 ft | 378 kts | 132° |
| 2026-05-08 18:43 | 20.08580 | -79.73769 | 23000 ft | 378 kts | 132° |
| 2026-05-08 18:43 | 20.06796 | -79.71701 | 23000 ft | 378 kts | 132° |
| 2026-05-08 18:44 | 20.05015 | -79.69639 | 23000 ft | 378 kts | 132° |
| 2026-05-08 18:44 | 20.03233 | -79.67575 | 23000 ft | 378 kts | 132° |
| 2026-05-08 18:44 | 20.01474 | -79.65538 | 23000 ft | 378 kts | 132° |
| 2026-05-08 18:44 | 19.99730 | -79.63515 | 22999 ft | 378 kts | 132° |
| 2026-05-08 18:45 | 19.97920 | -79.61410 | 23000 ft | 378 kts | 132° |
| 2026-05-08 18:45 | 19.96166 | -79.59367 | 23000 ft | 378 kts | 132° |
| 2026-05-08 18:45 | 19.94378 | -79.57288 | 23000 ft | 378 kts | 132° |
| 2026-05-08 18:45 | 19.92610 | -79.55230 | 23000 ft | 378 kts | 132° |
| 2026-05-08 18:46 | 19.90824 | -79.53153 | 23000 ft | 378 kts | 132° |
| 2026-05-08 18:46 | 19.89055 | -79.51096 | 23000 ft | 378 kts | 132° |
| 2026-05-08 18:46 | 19.87285 | -79.49046 | 23000 ft | 378 kts | 132° |
| 2026-05-08 18:46 | 19.85490 | -79.46970 | 23000 ft | 378 kts | 132° |
| 2026-05-08 18:47 | 19.83718 | -79.44923 | 23000 ft | 378 kts | 132° |
| 2026-05-08 18:47 | 19.81945 | -79.42875 | 23000 ft | 378 kts | 132° |
| 2026-05-08 18:47 | 19.80174 | -79.40829 | 23000 ft | 378 kts | 132° |
| 2026-05-08 18:47 | 19.78380 | -79.38759 | 23000 ft | 378 kts | 132° |
| 2026-05-08 18:48 | 19.76614 | -79.36721 | 23000 ft | 378 kts | 132° |
| 2026-05-08 18:48 | 19.74847 | -79.34684 | 23000 ft | 378 kts | 133° |
| 2026-05-08 18:48 | 19.73085 | -79.32652 | 23000 ft | 378 kts | 133° |
| 2026-05-08 18:48 | 19.71304 | -79.30599 | 23000 ft | 378 kts | 133° |
| 2026-05-08 18:49 | 19.69509 | -79.28530 | 23000 ft | 378 kts | 133° |
| 2026-05-08 18:49 | 19.67729 | -79.26481 | 23000 ft | 378 kts | 133° |
| 2026-05-08 18:49 | 19.65968 | -79.24452 | 23000 ft | 378 kts | 133° |
| 2026-05-08 18:49 | 19.64174 | -79.22388 | 23000 ft | 378 kts | 133° |
| 2026-05-08 18:50 | 19.62402 | -79.20349 | 23000 ft | 378 kts | 133° |
| 2026-05-08 18:50 | 19.60662 | -79.18349 | 23000 ft | 378 kts | 133° |
| 2026-05-08 18:50 | 19.58881 | -79.16300 | 23000 ft | 378 kts | 133° |
| 2026-05-08 18:50 | 19.57099 | -79.14253 | 23000 ft | 378 kts | 133° |
| 2026-05-08 18:51 | 19.55316 | -79.12205 | 23000 ft | 378 kts | 133° |
| 2026-05-08 18:51 | 19.53534 | -79.10157 | 23000 ft | 378 kts | 133° |
| 2026-05-08 18:51 | 19.51741 | -79.08099 | 23000 ft | 378 kts | 133° |
| 2026-05-08 18:51 | 19.49954 | -79.06049 | 23000 ft | 378 kts | 133° |
| 2026-05-08 18:52 | 19.48154 | -79.03983 | 23000 ft | 378 kts | 133° |
| 2026-05-08 18:52 | 19.46392 | -79.01962 | 23000 ft | 378 kts | 133° |
| 2026-05-08 18:52 | 19.44593 | -78.99899 | 23000 ft | 378 kts | 133° |
| 2026-05-08 18:52 | 19.42800 | -78.97844 | 23000 ft | 378 kts | 133° |
| 2026-05-08 18:53 | 19.41029 | -78.95813 | 23000 ft | 378 kts | 133° |
| 2026-05-08 18:53 | 19.39233 | -78.93752 | 23000 ft | 378 kts | 133° |
| 2026-05-08 18:53 | 19.37431 | -78.91685 | 23000 ft | 378 kts | 133° |
| 2026-05-08 18:53 | 19.35661 | -78.89655 | 23000 ft | 378 kts | 133° |
| 2026-05-08 18:54 | 19.33881 | -78.87614 | 23000 ft | 378 kts | 133° |
| 2026-05-08 18:54 | 19.32074 | -78.85545 | 23000 ft | 378 kts | 133° |
| 2026-05-08 18:54 | 19.30351 | -78.83570 | 23000 ft | 378 kts | 133° |
| 2026-05-08 18:54 | 19.28598 | -78.81562 | 23000 ft | 378 kts | 133° |
| 2026-05-08 18:55 | 19.25295 | -78.77782 | 23000 ft | 378 kts | 133° |
| 2026-05-08 18:55 | 19.23416 | -78.75633 | 23000 ft | 378 kts | 133° |
| 2026-05-08 18:55 | 19.21629 | -78.73589 | 23000 ft | 378 kts | 133° |
| 2026-05-08 18:56 | 19.19853 | -78.71558 | 23000 ft | 378 kts | 133° |
| 2026-05-08 18:56 | 19.18070 | -78.69521 | 23000 ft | 378 kts | 133° |
| 2026-05-08 18:56 | 19.16280 | -78.67476 | 23000 ft | 378 kts | 133° |
| 2026-05-08 18:56 | 19.14490 | -78.65431 | 23000 ft | 378 kts | 133° |
| 2026-05-08 18:57 | 19.12707 | -78.63396 | 23000 ft | 378 kts | 133° |
| 2026-05-08 18:57 | 19.10926 | -78.61363 | 23000 ft | 378 kts | 133° |
| 2026-05-08 18:57 | 19.09142 | -78.59328 | 23000 ft | 378 kts | 133° |
| 2026-05-08 18:57 | 19.07361 | -78.57297 | 23000 ft | 378 kts | 133° |
| 2026-05-08 18:58 | 19.05571 | -78.55256 | 23000 ft | 378 kts | 133° |
| 2026-05-08 18:58 | 19.03854 | -78.53300 | 23000 ft | 378 kts | 133° |
| 2026-05-08 18:58 | 19.02061 | -78.51257 | 23000 ft | 378 kts | 133° |
| 2026-05-08 18:58 | 19.00256 | -78.49200 | 23026 ft | 391 kts | 133° |
| 2026-05-08 18:59 | 18.98400 | -78.47088 | 23081 ft | 412 kts | 133° |
| 2026-05-08 18:59 | 18.96440 | -78.44856 | 23102 ft | 424 kts | 133° |
| 2026-05-08 18:59 | 18.94424 | -78.42564 | 23052 ft | 423 kts | 133° |
| 2026-05-08 18:59 | 18.92450 | -78.40322 | 23021 ft | 421 kts | 133° |
| 2026-05-08 19:00 | 18.90491 | -78.38113 | 23110 ft | 415 kts | 135° |
| 2026-05-08 19:00 | 18.88600 | -78.35992 | 24280 ft | 404 kts | 132° |
| 2026-05-08 19:00 | 18.86713 | -78.33824 | 24047 ft | 406 kts | 133° |
| 2026-05-08 19:00 | 18.84817 | -78.31663 | 23580 ft | 399 kts | 133° |
| 2026-05-08 19:01 | 18.82937 | -78.29528 | 23138 ft | 391 kts | 133° |
| 2026-05-08 19:01 | 18.81109 | -78.27454 | 22702 ft | 384 kts | 133° |
| 2026-05-08 19:01 | 18.79310 | -78.25414 | 22267 ft | 378 kts | 133° |
| 2026-05-08 19:01 | 18.77542 | -78.23412 | 21833 ft | 372 kts | 133° |
| 2026-05-08 19:02 | 18.75826 | -78.21469 | 21385 ft | 367 kts | 133° |
| 2026-05-08 19:02 | 18.74098 | -78.19512 | 20906 ft | 364 kts | 133° |
| 2026-05-08 19:02 | 18.72379 | -78.17567 | 20430 ft | 360 kts | 133° |
| 2026-05-08 19:02 | 18.70682 | -78.15646 | 19964 ft | 356 kts | 133° |
| 2026-05-08 19:03 | 18.69024 | -78.13772 | 19505 ft | 353 kts | 133° |
| 2026-05-08 19:03 | 18.67366 | -78.11897 | 19042 ft | 349 kts | 133° |
| 2026-05-08 19:03 | 18.65725 | -78.10042 | 18578 ft | 346 kts | 133° |
| 2026-05-08 19:03 | 18.64079 | -78.08182 | 18118 ft | 343 kts | 133° |
| 2026-05-08 19:04 | 18.62475 | -78.06370 | 17635 ft | 342 kts | 133° |
| 2026-05-08 19:04 | 18.60846 | -78.04530 | 17115 ft | 340 kts | 133° |
| 2026-05-08 19:04 | 18.59233 | -78.02710 | 16618 ft | 339 kts | 133° |
| 2026-05-08 19:04 | 18.57664 | -78.00938 | 16128 ft | 337 kts | 133° |
| 2026-05-08 19:05 | 18.56041 | -77.99107 | 15621 ft | 336 kts | 133° |
| 2026-05-08 19:05 | 18.54447 | -77.97309 | 15120 ft | 335 kts | 133° |
| 2026-05-08 19:05 | 18.52876 | -77.95538 | 14625 ft | 333 kts | 133° |
| 2026-05-08 19:05 | 18.51340 | -77.93806 | 14138 ft | 332 kts | 133° |
| 2026-05-08 19:06 | 18.50018 | -77.91956 | 13621 ft | 331 kts | 120° |
| 2026-05-08 19:06 | 18.48866 | -77.89794 | 13114 ft | 329 kts | 118° |
| 2026-05-08 19:06 | 18.47782 | -77.87662 | 12610 ft | 328 kts | 118° |
| 2026-05-08 19:06 | 18.46721 | -77.85540 | 12111 ft | 327 kts | 117° |
| 2026-05-08 19:07 | 18.45661 | -77.83403 | 11606 ft | 325 kts | 117° |
| 2026-05-08 19:07 | 18.44627 | -77.81316 | 11112 ft | 324 kts | 117° |
| 2026-05-08 19:07 | 18.43581 | -77.79201 | 10609 ft | 323 kts | 117° |
| 2026-05-08 19:07 | 18.42559 | -77.77134 | 10116 ft | 322 kts | 117° |
| 2026-05-08 19:08 | 18.41531 | -77.75056 | 9618 ft | 320 kts | 117° |
| 2026-05-08 19:08 | 18.40505 | -77.72981 | 9119 ft | 319 kts | 117° |
| 2026-05-08 19:08 | 18.39478 | -77.70908 | 8618 ft | 318 kts | 117° |
| 2026-05-08 19:08 | 18.38465 | -77.68861 | 8122 ft | 317 kts | 117° |
| 2026-05-08 19:09 | 18.37445 | -77.66801 | 7620 ft | 316 kts | 117° |
| 2026-05-08 19:09 | 18.36425 | -77.64742 | 7117 ft | 314 kts | 117° |
| 2026-05-08 19:09 | 18.35429 | -77.62730 | 6624 ft | 313 kts | 117° |
| 2026-05-08 19:09 | 18.34412 | -77.60680 | 6119 ft | 312 kts | 117° |
| 2026-05-08 19:10 | 18.33419 | -77.58677 | 5624 ft | 311 kts | 117° |
| 2026-05-08 19:10 | 18.32419 | -77.56660 | 5146 ft | 309 kts | 117° |
| 2026-05-08 19:10 | 18.31452 | -77.54711 | 5062 ft | 293 kts | 117° |
| 2026-05-08 19:10 | 18.30600 | -77.52994 | 5016 ft | 280 kts | 117° |
| 2026-05-08 19:11 | 18.29691 | -77.51163 | 5036 ft | 261 kts | 117° |
| 2026-05-08 19:11 | 18.28968 | -77.49709 | 5041 ft | 252 kts | 117° |
| 2026-05-08 19:11 | 18.28133 | -77.48027 | 5029 ft | 250 kts | 117° |
| 2026-05-08 19:11 | 18.27317 | -77.46384 | 5047 ft | 252 kts | 117° |
| 2026-05-08 19:12 | 18.26501 | -77.44743 | 5045 ft | 253 kts | 117° |
| 2026-05-08 19:12 | 18.25681 | -77.43094 | 5045 ft | 253 kts | 117° |
| 2026-05-08 19:12 | 18.24862 | -77.41446 | 5045 ft | 253 kts | 117° |
| 2026-05-08 19:12 | 18.24066 | -77.39845 | 5011 ft | 241 kts | 117° |
| 2026-05-08 19:13 | 18.23309 | -77.38323 | 5006 ft | 233 kts | 117° |
| 2026-05-08 19:13 | 18.22550 | -77.36797 | 5033 ft | 236 kts | 117° |
| 2026-05-08 19:13 | 18.21797 | -77.35286 | 5032 ft | 238 kts | 117° |
| 2026-05-08 19:13 | 18.21056 | -77.33800 | 4827 ft | 236 kts | 117° |
| 2026-05-08 19:14 | 18.20298 | -77.32280 | 4698 ft | 234 kts | 117° |
| 2026-05-08 19:14 | 18.19545 | -77.30770 | 4495 ft | 236 kts | 117° |
| 2026-05-08 19:14 | 18.18781 | -77.29238 | 4276 ft | 235 kts | 117° |
| 2026-05-08 19:14 | 18.18036 | -77.27747 | 4080 ft | 233 kts | 117° |
| 2026-05-08 19:15 | 18.17299 | -77.26270 | 4028 ft | 218 kts | 118° |
| 2026-05-08 19:15 | 18.16600 | -77.24870 | 4046 ft | 216 kts | 118° |
| 2026-05-08 19:15 | 18.15896 | -77.23462 | 4047 ft | 218 kts | 118° |
| 2026-05-08 19:15 | 18.15186 | -77.22041 | 4046 ft | 218 kts | 118° |
| 2026-05-08 19:16 | 18.14478 | -77.20622 | 4045 ft | 219 kts | 118° |
| 2026-05-08 19:16 | 18.13771 | -77.19209 | 4045 ft | 218 kts | 118° |
| 2026-05-08 19:16 | 18.13058 | -77.17781 | 4045 ft | 218 kts | 118° |
| 2026-05-08 19:16 | 18.12243 | -77.16588 | 4017 ft | 217 kts | 136° |
| 2026-05-08 19:17 | 18.11163 | -77.15633 | 4047 ft | 206 kts | 142° |
| 2026-05-08 19:17 | 18.09962 | -77.14700 | 4044 ft | 207 kts | 144° |
| 2026-05-08 19:17 | 18.08796 | -77.13824 | 4047 ft | 208 kts | 144° |
| 2026-05-08 19:17 | 18.07624 | -77.12954 | 4046 ft | 208 kts | 144° |
| 2026-05-08 19:18 | 18.06635 | -77.12003 | 3996 ft | 209 kts | 126° |
| 2026-05-08 19:18 | 18.06035 | -77.10634 | 3815 ft | 208 kts | 107° |
| 2026-05-08 19:18 | 18.05705 | -77.09286 | 3641 ft | 200 kts | 102° |
| 2026-05-08 19:18 | 18.05432 | -77.07892 | 3366 ft | 191 kts | 101° |
| 2026-05-08 19:19 | 18.05192 | -77.06576 | 3104 ft | 185 kts | 101° |
| 2026-05-08 19:19 | 18.04971 | -77.05335 | 2868 ft | 173 kts | 101° |
| 2026-05-08 19:19 | 18.04592 | -77.04207 | 2827 ft | 161 kts | 113° |
| 2026-05-08 19:19 | 18.04268 | -77.03207 | 2848 ft | 166 kts | 115° |
| 2026-05-08 19:20 | 18.03768 | -77.02140 | 2780 ft | 154 kts | 116° |
| 2026-05-08 19:20 | 18.03459 | -77.01472 | 2757 ft | 150 kts | 116° |
| 2026-05-08 19:20 | 18.02857 | -77.00144 | 2749 ft | 152 kts | 115° |
| 2026-05-08 19:20 | 18.02400 | -76.99121 | 2734 ft | 153 kts | 115° |
| 2026-05-08 19:21 | 18.01945 | -76.98093 | 2718 ft | 153 kts | 115° |
| 2026-05-08 19:21 | 18.01497 | -76.97078 | 2700 ft | 153 kts | 115° |
| 2026-05-08 19:21 | 18.01060 | -76.96081 | 2678 ft | 153 kts | 115° |
| 2026-05-08 19:21 | 18.00611 | -76.95057 | 2623 ft | 153 kts | 115° |
| 2026-05-08 19:22 | 18.00173 | -76.94057 | 2538 ft | 153 kts | 115° |
| 2026-05-08 19:22 | 17.99728 | -76.93042 | 2430 ft | 153 kts | 115° |
| 2026-05-08 19:22 | 17.99281 | -76.92020 | 2299 ft | 152 kts | 115° |
| 2026-05-08 19:22 | 17.98846 | -76.91027 | 2146 ft | 148 kts | 115° |
| 2026-05-08 19:23 | 17.98418 | -76.90050 | 1991 ft | 146 kts | 115° |
| 2026-05-08 19:23 | 17.97997 | -76.89088 | 1831 ft | 146 kts | 115° |
| 2026-05-08 19:23 | 17.97595 | -76.88171 | 1671 ft | 146 kts | 115° |
| 2026-05-08 19:23 | 17.97210 | -76.87292 | 1511 ft | 146 kts | 115° |
| 2026-05-08 19:24 | 17.96771 | -76.86292 | 1322 ft | 145 kts | 115° |
| 2026-05-08 19:24 | 17.96349 | -76.85329 | 1135 ft | 145 kts | 115° |
| 2026-05-08 19:24 | 17.96088 | -76.84733 | 1017 ft | 145 kts | 115° |
| 2026-05-08 19:25 | 17.95079 | -76.82386 | 559 ft | 145 kts | 113° |
| 2026-05-08 19:25 | 17.94809 | -76.81741 | 448 ft | 144 kts | 115° |
| 2026-05-08 19:26 | 17.93527 | -76.78645 | 17 ft | 98 kts | 112° |
| 2026-05-08 19:27 | 17.93350 | -76.78200 | 16 ft | 37 kts | 114° |
| 2026-05-08 19:28 | 17.93377 | -76.77845 | 16 ft | 11 kts | 288° |
| 2026-05-08 19:28 | 17.93404 | -76.77921 | 16 ft | 10 kts | 290° |
| 2026-05-08 19:28 | 17.93446 | -76.77964 | 16 ft | 9 kts | 343° |
| 2026-05-08 19:28 | 17.93511 | -76.77975 | 16 ft | 6 kts | 353° |
| 2026-05-08 19:29 | 17.93549 | -76.77979 | 16 ft | 2 kts | 355° |
| 2026-05-08 19:29 | 17.93566 | -76.77980 | 16 ft | 1 kts | 355° |
| 2026-05-08 19:29 | 17.93574 | -76.77981 | 16 ft | 0 kts | 355° |